createdAt,value
2023-01-12T00:00:37.406Z,100332.03
2023-01-12T00:03:20.328Z,100326.84
2023-01-12T00:05:50.491Z,100326.19
2023-01-12T00:08:19.547Z,100333.00
2023-01-12T00:10:48.323Z,100333.06
2023-01-12T00:13:17.422Z,100327.00
2023-01-12T00:16:00.101Z,100337.47
2023-01-12T00:18:29.191Z,100328.72
2023-01-12T00:20:59.385Z,100335.47
2023-01-12T00:23:30.383Z,100328.38
2023-01-12T00:25:59.219Z,100335.59
2023-01-12T00:28:28.335Z,100335.78
2023-01-12T00:31:02.160Z,100333.47
2023-01-12T00:33:31.319Z,100335.19
2023-01-12T00:36:05.694Z,100336.06
2023-01-12T00:38:37.185Z,100337.25
2023-01-12T00:41:07.578Z,100338.91
2023-01-12T00:43:54.493Z,100342.28
2023-01-12T00:46:31.661Z,100351.69
2023-01-12T00:49:00.816Z,100344.00
2023-01-12T00:51:31.086Z,100344.81
2023-01-12T00:54:04.430Z,100344.13
2023-01-12T00:56:33.459Z,100345.59
2023-01-12T00:59:03.047Z,100349.81
2023-01-12T01:01:34.439Z,100332.44
2023-01-12T01:04:03.922Z,100345.84
2023-01-12T01:06:34.147Z,100347.59
2023-01-12T01:09:03.218Z,100345.84
2023-01-12T01:11:32.284Z,100350.13
2023-01-12T01:14:01.869Z,100349.88
2023-01-12T01:16:31.290Z,100340.63
2023-01-12T01:19:03.216Z,100342.22
2023-01-12T01:21:34.374Z,100340.31
2023-01-12T01:24:03.524Z,100342.59
2023-01-12T01:26:33.727Z,100342.88
2023-01-12T01:29:02.842Z,100335.06
2023-01-12T01:31:31.864Z,100331.41
2023-01-12T01:34:01.016Z,100333.88
2023-01-12T01:36:29.858Z,100326.13
2023-01-12T01:39:00.738Z,100327.69
2023-01-12T01:41:33.472Z,100331.22
2023-01-12T01:44:06.130Z,100333.53
2023-01-12T01:46:45.102Z,100334.84
2023-01-12T01:49:31.704Z,100334.00
2023-01-12T01:52:07.235Z,100328.66
2023-01-12T01:54:43.995Z,100331.06
2023-01-12T01:57:15.705Z,100330.22
2023-01-12T01:59:52.056Z,100323.06
2023-01-12T02:02:21.158Z,100329.09
2023-01-12T02:04:50.368Z,100330.94
2023-01-12T02:07:19.287Z,100339.44
2023-01-12T02:09:49.747Z,100337.44
2023-01-12T02:12:35.771Z,100331.38
2023-01-12T02:15:23.108Z,100333.00
2023-01-12T02:18:14.005Z,100334.38
2023-01-12T02:21:01.871Z,100337.75
2023-01-12T02:24:28.035Z,100344.50
2023-01-12T02:27:26.521Z,100348.03
2023-01-12T02:30:51.361Z,100347.88
2023-01-12T02:33:43.497Z,100345.09
2023-01-12T02:36:25.588Z,100345.09
2023-01-12T02:39:05.547Z,100334.53
2023-01-12T02:41:59.731Z,100336.22
2023-01-12T02:44:40.825Z,100345.84
2023-01-12T02:47:19.623Z,100356.09
2023-01-12T02:49:57.563Z,100348.13
2023-01-12T02:52:31.540Z,100355.03
2023-01-12T02:55:04.961Z,100361.03
2023-01-12T02:57:38.468Z,100360.97
2023-01-12T03:00:10.556Z,100365.25
2023-01-12T03:02:40.179Z,100372.09
2023-01-12T03:05:11.317Z,100365.88
2023-01-12T03:07:49.945Z,100368.44
2023-01-12T03:10:42.712Z,100364.84
2023-01-12T03:13:16.998Z,100369.97
2023-01-12T03:15:51.151Z,100375.06
2023-01-12T03:18:30.124Z,100376.75
2023-01-12T03:21:07.973Z,100383.50
2023-01-12T03:23:45.685Z,100378.38
2023-01-12T03:26:24.131Z,100377.53
2023-01-12T03:29:01.801Z,100377.53
2023-01-12T03:31:31.857Z,100380.06
2023-01-12T03:34:01.832Z,100380.97
2023-01-12T03:36:46.600Z,100384.44
2023-01-12T03:39:26.488Z,100381.69
2023-01-12T03:42:03.199Z,100386.00
2023-01-12T03:44:42.251Z,100385.78
2023-01-12T03:47:29.274Z,100388.09
2023-01-12T03:50:04.974Z,100385.44
2023-01-12T03:52:39.630Z,100378.47
2023-01-12T03:55:13.739Z,100377.53
2023-01-12T03:57:45.647Z,100379.16
2023-01-12T04:00:18.044Z,100381.78
2023-01-12T04:02:48.049Z,100385.22
2023-01-12T04:05:17.549Z,100386.84
2023-01-12T04:07:47.983Z,100388.44
2023-01-12T04:10:17.383Z,100390.91
2023-01-12T04:12:46.467Z,100387.28
2023-01-12T04:15:15.428Z,100389.00
2023-01-12T04:17:44.482Z,100388.53
2023-01-12T04:20:14.623Z,100385.94
2023-01-12T04:22:43.639Z,100394.78
2023-01-12T04:25:16.727Z,100403.63
2023-01-12T04:27:49.658Z,100403.72
2023-01-12T04:30:23.541Z,100403.84
2023-01-12T04:32:53.201Z,100404.09
2023-01-12T04:35:22.046Z,100407.97
2023-01-12T04:37:51.887Z,100411.81
2023-01-12T04:40:22.345Z,100408.03
2023-01-12T04:43:06.998Z,100401.56
2023-01-12T04:45:39.887Z,100405.50
2023-01-12T04:48:12.779Z,100408.28
2023-01-12T04:50:42.754Z,100408.34
2023-01-12T04:53:13.860Z,100417.19
2023-01-12T04:55:45.192Z,100406.13
2023-01-12T04:58:14.366Z,100416.66
2023-01-12T05:00:43.559Z,100414.75
2023-01-12T05:03:14.132Z,100407.69
2023-01-12T05:05:43.334Z,100408.84
2023-01-12T05:08:29.910Z,100405.56
2023-01-12T05:11:02.373Z,100400.84
2023-01-12T05:13:33.284Z,100404.94
2023-01-12T05:16:10.962Z,100401.69
2023-01-12T05:18:40.261Z,100409.69
2023-01-12T05:21:09.114Z,100408.53
2023-01-12T05:23:38.296Z,100412.91
2023-01-12T05:26:08.970Z,100412.06
2023-01-12T05:28:38.094Z,100413.41
2023-01-12T05:31:10.167Z,100415.00
2023-01-12T05:33:41.632Z,100410.84
2023-01-12T05:36:13.999Z,100414.59
2023-01-12T05:38:43.772Z,100418.06
2023-01-12T05:41:16.810Z,100426.69
2023-01-12T05:43:50.812Z,100425.16
2023-01-12T05:46:23.057Z,100420.84
2023-01-12T05:48:53.964Z,100423.38
2023-01-12T05:51:23.347Z,100421.78
2023-01-12T05:53:52.598Z,100414.78
2023-01-12T05:56:26.172Z,100428.69
2023-01-12T05:58:58.455Z,100428.91
2023-01-12T06:01:29.372Z,100431.91
2023-01-12T06:04:01.715Z,100438.00
2023-01-12T06:06:32.921Z,100440.44
2023-01-12T06:09:03.854Z,100435.28
2023-01-12T06:11:51.434Z,100435.38
2023-01-12T06:14:20.516Z,100442.84
2023-01-12T06:16:49.330Z,100448.97
2023-01-12T06:19:18.441Z,100444.84
2023-01-12T06:21:47.263Z,100448.38
2023-01-12T06:24:16.419Z,100451.16
2023-01-12T06:26:46.705Z,100445.78
2023-01-12T06:29:15.829Z,100454.75
2023-01-12T06:31:44.867Z,100453.63
2023-01-12T06:34:14.224Z,100451.84
2023-01-12T06:36:43.370Z,100448.38
2023-01-12T06:39:14.128Z,100450.53
2023-01-12T06:42:00.143Z,100463.06
2023-01-12T06:44:30.619Z,100463.75
2023-01-12T06:46:59.457Z,100461.47
2023-01-12T06:49:28.550Z,100457.47
2023-01-12T06:51:57.361Z,100454.47
2023-01-12T06:54:26.472Z,100458.22
2023-01-12T06:56:55.793Z,100454.84
2023-01-12T06:59:24.982Z,100458.22
2023-01-12T07:01:55.293Z,100460.84
2023-01-12T07:04:24.589Z,100460.69
2023-01-12T07:06:56.189Z,100467.53
2023-01-12T07:09:25.393Z,100467.59
2023-01-12T07:11:54.246Z,100469.22
2023-01-12T07:14:23.324Z,100483.28
2023-01-12T07:16:52.169Z,100489.13
2023-01-12T07:19:23.022Z,100494.19
2023-01-12T07:21:52.050Z,100497.84
2023-01-12T07:24:21.162Z,100496.06
2023-01-12T07:26:50.850Z,100494.19
2023-01-12T07:29:19.936Z,100490.63
2023-01-12T07:31:50.143Z,100484.50
2023-01-12T07:34:19.517Z,100494.97
2023-01-12T07:36:51.485Z,100496.06
2023-01-12T07:39:20.824Z,100493.50
2023-01-12T07:42:07.214Z,100506.59
2023-01-12T07:44:40.305Z,100513.41
2023-01-12T07:47:09.195Z,100503.91
2023-01-12T07:49:38.413Z,100501.28
2023-01-12T07:52:08.862Z,100500.19
2023-01-12T07:54:37.933Z,100506.28
2023-01-12T07:57:10.872Z,100510.97
2023-01-12T07:59:39.924Z,100517.81
2023-01-12T08:02:16.453Z,100519.56
2023-01-12T08:04:45.862Z,100525.44
2023-01-12T08:07:16.173Z,100520.28
2023-01-12T08:09:45.356Z,100524.59
2023-01-12T08:12:14.348Z,100523.03
2023-01-12T08:14:43.793Z,100538.03
2023-01-12T08:17:20.107Z,100534.25
2023-01-12T08:19:59.695Z,100546.97
2023-01-12T08:22:36.625Z,100533.75
2023-01-12T08:25:13.466Z,100528.41
2023-01-12T08:27:51.047Z,100535.47
2023-01-12T08:30:25.891Z,100531.53
2023-01-12T08:32:58.675Z,100527.53
2023-01-12T08:35:33.492Z,100540.59
2023-01-12T08:38:03.790Z,100532.00
2023-01-12T08:40:46.825Z,100534.91
2023-01-12T08:43:35.685Z,100533.28
2023-01-12T08:46:08.037Z,100527.97
2023-01-12T08:48:37.543Z,100528.59
2023-01-12T08:51:09.288Z,100541.03
2023-01-12T08:53:39.461Z,100543.38
2023-01-12T08:56:09.374Z,100541.41
2023-01-12T08:58:38.662Z,100544.56
2023-01-12T09:01:09.969Z,100546.66
2023-01-12T09:03:39.968Z,100545.91
2023-01-12T09:06:14.836Z,100541.50
2023-01-12T09:08:46.113Z,100532.03
2023-01-12T09:11:16.956Z,100532.50
2023-01-12T09:13:46.044Z,100539.94
2023-01-12T09:16:19.049Z,100530.50
2023-01-12T09:18:48.225Z,100527.53
2023-01-12T09:21:20.303Z,100530.47
2023-01-12T09:23:51.248Z,100534.50
2023-01-12T09:26:23.019Z,100526.22
2023-01-12T09:28:52.569Z,100523.97
2023-01-12T09:31:24.290Z,100528.38
2023-01-12T09:33:53.633Z,100520.59
2023-01-12T09:36:25.994Z,100515.91
2023-01-12T09:38:57.314Z,100513.13
2023-01-12T09:41:48.166Z,100506.97
2023-01-12T09:44:47.098Z,100507.72
2023-01-12T09:47:25.201Z,100505.72
2023-01-12T09:50:10.493Z,100506.41
2023-01-12T09:52:44.811Z,100501.88
2023-01-12T09:55:19.548Z,100504.16
2023-01-12T09:58:18.658Z,100495.00
2023-01-12T10:00:52.346Z,100490.63
2023-01-12T10:03:31.727Z,100497.22
2023-01-12T10:06:01.665Z,100489.59
2023-01-12T10:08:38.264Z,100484.38
2023-01-12T10:11:18.387Z,100476.44
2023-01-12T10:14:25.578Z,100478.41
2023-01-12T10:17:38.571Z,100474.13
2023-01-12T10:20:22.297Z,100474.28
2023-01-12T10:22:54.804Z,100472.72
2023-01-12T10:25:38.984Z,100467.25
2023-01-12T10:28:17.912Z,100463.97
2023-01-12T10:30:47.603Z,100475.19
2023-01-12T10:33:20.259Z,100466.25
2023-01-12T10:35:54.125Z,100467.78
2023-01-12T10:38:28.857Z,100466.84
2023-01-12T10:41:16.763Z,100463.88
2023-01-12T10:44:06.281Z,100472.84
2023-01-12T10:46:36.214Z,100455.72
2023-01-12T10:49:20.937Z,100446.44
2023-01-12T10:51:55.904Z,100454.09
2023-01-12T10:54:28.557Z,100449.38
2023-01-12T10:57:04.249Z,100443.06
2023-01-12T10:59:39.013Z,100447.25
2023-01-12T11:02:17.359Z,100445.00
2023-01-12T11:04:50.315Z,100436.47
2023-01-12T11:07:25.671Z,100429.19
2023-01-12T11:09:55.310Z,100434.25
2023-01-12T11:12:31.117Z,100430.56
2023-01-12T11:15:05.448Z,100429.00
2023-01-12T11:18:01.197Z,100427.84
2023-01-12T11:20:38.103Z,100418.22
2023-01-12T11:23:15.763Z,100430.28
2023-01-12T11:25:50.622Z,100431.13
2023-01-12T11:28:29.397Z,100419.25
2023-01-12T11:31:06.352Z,100420.91
2023-01-12T11:33:43.702Z,100430.41
2023-01-12T11:36:20.982Z,100429.03
2023-01-12T11:38:55.472Z,100420.41
2023-01-12T11:41:34.396Z,100413.81
2023-01-12T11:44:15.374Z,100415.97
2023-01-12T11:46:50.585Z,100404.16
2023-01-12T11:49:30.302Z,100403.16
2023-01-12T11:52:02.383Z,100399.47
2023-01-12T11:54:33.241Z,100391.19
2023-01-12T11:57:34.543Z,100397.00
2023-01-12T12:00:24.781Z,100393.81
2023-01-12T12:03:10.482Z,100392.88
2023-01-12T12:05:50.579Z,100391.09
2023-01-12T12:08:41.134Z,100395.56
2023-01-12T12:11:23.423Z,100388.41
2023-01-12T12:14:08.318Z,100386.56
2023-01-12T12:16:49.995Z,100384.72
2023-01-12T12:19:43.893Z,100386.94
2023-01-12T12:22:34.912Z,100379.97
2023-01-12T12:25:18.599Z,100379.66
2023-01-12T12:28:11.087Z,100378.94
2023-01-12T12:31:06.359Z,100380.97
2023-01-12T12:33:58.141Z,100383.00
2023-01-12T12:36:37.118Z,100386.78
2023-01-12T12:39:37.095Z,100384.25
2023-01-12T12:42:46.432Z,100388.63
2023-01-12T12:45:28.816Z,100379.44
2023-01-12T12:48:07.175Z,100384.31
2023-01-12T12:50:44.370Z,100379.09
2023-01-12T12:53:29.065Z,100379.97
2023-01-12T12:56:03.719Z,100376.84
2023-01-12T12:58:45.973Z,100371.91
2023-01-12T13:01:43.436Z,100369.91
2023-01-12T13:04:14.591Z,100373.81
2023-01-12T13:06:50.597Z,100363.13
2023-01-12T13:09:42.177Z,100352.06
2023-01-12T13:12:33.145Z,100355.47
2023-01-12T13:15:26.415Z,100357.44
2023-01-12T13:17:57.313Z,100348.72
2023-01-12T13:21:02.075Z,100339.44
2023-01-12T13:23:50.647Z,100338.97
2023-01-12T13:26:52.273Z,100334.13
2023-01-12T13:29:40.683Z,100338.22
2023-01-12T13:32:51.992Z,100336.56
2023-01-12T13:35:44.582Z,100335.78
2023-01-12T13:38:24.523Z,100322.22
2023-01-12T13:40:55.988Z,100335.31
2023-01-12T13:43:33.142Z,100328.53
2023-01-12T13:46:06.712Z,100327.63
2023-01-12T13:48:37.424Z,100339.38
2023-01-12T13:51:18.441Z,100328.91
2023-01-12T13:54:00.192Z,100331.00
2023-01-12T13:56:29.595Z,100338.28
2023-01-12T13:59:03.876Z,100326.84
2023-01-12T14:01:37.304Z,100328.47
2023-01-12T14:04:31.389Z,100312.84
2023-01-12T14:07:13.439Z,100314.88
2023-01-12T14:09:56.446Z,100312.25
2023-01-12T14:13:07.284Z,100302.22
2023-01-12T14:15:57.613Z,100318.41
2023-01-12T14:18:29.431Z,100310.13
2023-01-12T14:21:00.523Z,100305.06
2023-01-12T14:23:33.788Z,100303.47
2023-01-12T14:26:08.136Z,100296.09
2023-01-12T14:28:38.634Z,100300.66
2023-01-12T14:31:18.839Z,100298.31
2023-01-12T14:33:53.064Z,100292.56
2023-01-12T14:36:28.612Z,100292.78
2023-01-12T14:39:00.691Z,100285.19
2023-01-12T14:41:49.027Z,100287.72
2023-01-12T14:44:39.483Z,100293.44
2023-01-12T14:47:10.865Z,100286.75
2023-01-12T14:49:40.245Z,100294.19
2023-01-12T14:52:27.123Z,100286.00
2023-01-12T14:54:56.310Z,100289.03
2023-01-12T14:57:34.593Z,100281.41
2023-01-12T15:00:06.090Z,100274.06
2023-01-12T15:02:40.152Z,100273.28
2023-01-12T15:05:23.040Z,100277.66
2023-01-12T15:07:58.760Z,100275.69
2023-01-12T15:10:33.593Z,100275.00
2023-01-12T15:13:26.459Z,100284.56
2023-01-12T15:16:15.315Z,100274.00
2023-01-12T15:19:03.699Z,100272.06
2023-01-12T15:21:51.876Z,100281.22
2023-01-12T15:24:43.341Z,100282.13
2023-01-12T15:27:15.673Z,100286.56
2023-01-12T15:29:44.666Z,100286.91
2023-01-12T15:32:21.158Z,100285.34
2023-01-12T15:34:51.480Z,100292.41
2023-01-12T15:37:21.783Z,100294.19
2023-01-12T15:39:50.675Z,100301.00
2023-01-12T15:42:22.776Z,100305.06
2023-01-12T15:44:53.947Z,100306.97
2023-01-12T15:47:23.615Z,100306.97
2023-01-12T15:49:54.380Z,100302.56
2023-01-12T15:52:26.558Z,100300.91
2023-01-12T15:54:55.371Z,100306.59
2023-01-12T15:57:24.428Z,100311.91
2023-01-12T15:59:53.520Z,100303.44
2023-01-12T16:02:34.437Z,100308.03
2023-01-12T16:05:06.773Z,100300.97
2023-01-12T16:07:35.960Z,100304.66
2023-01-12T16:10:06.670Z,100302.28
2023-01-12T16:12:37.061Z,100299.72
2023-01-12T16:15:07.410Z,100303.03
2023-01-12T16:17:36.804Z,100294.63
2023-01-12T16:20:09.221Z,100297.22
2023-01-12T16:22:38.319Z,100291.31
2023-01-12T16:25:08.759Z,100288.53
2023-01-12T16:27:38.798Z,100286.88
2023-01-12T16:30:13.163Z,100285.84
2023-01-12T16:32:46.469Z,100277.84
2023-01-12T16:35:17.421Z,100273.66
2023-01-12T16:37:46.568Z,100277.84
2023-01-12T16:40:15.737Z,100280.69
2023-01-12T16:42:44.839Z,100278.13
2023-01-12T16:45:13.872Z,100286.16
2023-01-12T16:47:42.940Z,100284.41
2023-01-12T16:50:11.829Z,100279.41
2023-01-12T16:52:42.304Z,100277.84
2023-01-12T16:55:11.238Z,100282.09
2023-01-12T16:57:41.129Z,100274.63
2023-01-12T17:00:12.399Z,100273.09
2023-01-12T17:02:41.880Z,100280.72
2023-01-12T17:05:12.026Z,100280.16
2023-01-12T17:07:43.184Z,100269.84
2023-01-12T17:10:12.945Z,100274.38
2023-01-12T17:12:58.059Z,100270.13
2023-01-12T17:15:31.557Z,100262.53
2023-01-12T17:18:01.231Z,100270.13
2023-01-12T17:20:30.415Z,100268.16
2023-01-12T17:23:01.888Z,100258.59
2023-01-12T17:25:30.781Z,100256.25
2023-01-12T17:27:59.970Z,100246.31
2023-01-12T17:30:28.904Z,100253.44
2023-01-12T17:32:58.056Z,100253.84
2023-01-12T17:35:27.402Z,100253.44
2023-01-12T17:37:56.589Z,100253.50
2023-01-12T17:40:27.403Z,100248.63
2023-01-12T17:43:07.746Z,100234.16
2023-01-12T17:45:42.609Z,100241.53
2023-01-12T17:48:13.239Z,100234.50
2023-01-12T17:50:42.291Z,100234.88
2023-01-12T17:53:11.714Z,100233.28
2023-01-12T17:55:48.557Z,100242.50
2023-01-12T17:58:18.675Z,100223.06
2023-01-12T18:00:47.537Z,100229.66
2023-01-12T18:03:16.721Z,100237.34
2023-01-12T18:05:50.018Z,100232.13
2023-01-12T18:08:22.668Z,100223.63
2023-01-12T18:10:52.925Z,100229.66
2023-01-12T18:13:22.057Z,100228.16
2023-01-12T18:15:51.096Z,100234.47
2023-01-12T18:18:20.259Z,100224.78
2023-01-12T18:20:52.321Z,100220.63
2023-01-12T18:23:21.810Z,100221.19
2023-01-12T18:25:52.082Z,100217.59
2023-01-12T18:28:21.195Z,100221.88
2023-01-12T18:30:50.221Z,100204.34
2023-01-12T18:33:19.344Z,100209.41
2023-01-12T18:35:48.190Z,100204.25
2023-01-12T18:38:17.285Z,100202.44
2023-01-12T18:41:06.692Z,100198.06
2023-01-12T18:43:36.230Z,100195.09
2023-01-12T18:46:13.248Z,100190.38
2023-01-12T18:48:45.730Z,100192.31
2023-01-12T18:51:34.110Z,100180.47
2023-01-12T18:54:03.211Z,100195.44
2023-01-12T18:56:32.035Z,100192.84
2023-01-12T18:59:04.283Z,100177.34
2023-01-12T19:01:33.162Z,100183.09
2023-01-12T19:04:02.757Z,100180.50
2023-01-12T19:06:43.068Z,100168.84
2023-01-12T19:09:31.196Z,100165.78
2023-01-12T19:12:01.558Z,100181.66
2023-01-12T19:14:49.655Z,100187.00
2023-01-12T19:17:27.947Z,100178.13
2023-01-12T19:19:58.829Z,100176.22
2023-01-12T19:22:46.620Z,100169.66
2023-01-12T19:25:35.574Z,100169.53
2023-01-12T19:28:25.878Z,100167.59
2023-01-12T19:31:01.871Z,100171.72
2023-01-12T19:33:31.402Z,100171.13
2023-01-12T19:36:06.380Z,100173.19
2023-01-12T19:38:36.026Z,100166.31
2023-01-12T19:41:12.698Z,100168.28
2023-01-12T19:43:45.233Z,100158.28
2023-01-12T19:46:15.956Z,100161.28
2023-01-12T19:48:45.573Z,100167.34
2023-01-12T19:51:14.749Z,100167.13
2023-01-12T19:53:43.547Z,100168.66
2023-01-12T19:56:14.575Z,100167.88
2023-01-12T19:58:45.032Z,100158.03
2023-01-12T20:01:23.189Z,100157.81
2023-01-12T20:03:52.623Z,100168.84
2023-01-12T20:06:21.781Z,100167.63
2023-01-12T20:08:50.652Z,100154.88
2023-01-12T20:11:19.933Z,100165.31
2023-01-12T20:13:48.739Z,100166.84
2023-01-12T20:16:17.975Z,100161.84
2023-01-12T20:18:48.718Z,100163.91
2023-01-12T20:21:17.816Z,100171.66
2023-01-12T20:23:46.609Z,100169.06
2023-01-12T20:26:15.914Z,100159.00
2023-01-12T20:28:44.986Z,100168.28
2023-01-12T20:31:17.226Z,100166.91
2023-01-12T20:33:47.726Z,100169.06
2023-01-12T20:36:18.678Z,100159.69
2023-01-12T20:38:47.980Z,100163.31
2023-01-12T20:41:17.083Z,100163.34
2023-01-12T20:43:46.157Z,100159.97
2023-01-12T20:46:15.948Z,100158.44
2023-01-12T20:48:47.116Z,100161.97
2023-01-12T20:51:18.148Z,100164.59
2023-01-12T20:53:47.064Z,100165.28
2023-01-12T20:56:16.201Z,100153.91
2023-01-12T20:58:45.056Z,100159.47
2023-01-12T21:01:16.688Z,100158.88
2023-01-12T21:03:47.303Z,100157.13
2023-01-12T21:06:18.706Z,100157.59
2023-01-12T21:08:48.994Z,100155.59
2023-01-12T21:11:21.463Z,100156.53
2023-01-12T21:13:50.362Z,100160.56
2023-01-12T21:16:22.667Z,100160.66
2023-01-12T21:18:53.619Z,100157.44
2023-01-12T21:21:22.841Z,100161.16
2023-01-12T21:23:51.712Z,100145.34
2023-01-12T21:26:21.082Z,100142.19
2023-01-12T21:28:49.979Z,100147.34
2023-01-12T21:31:19.117Z,100146.31
2023-01-12T21:33:48.011Z,100146.00
2023-01-12T21:36:19.788Z,100139.41
2023-01-12T21:38:51.984Z,100133.69
2023-01-12T21:41:22.507Z,100132.53
2023-01-12T21:43:53.200Z,100131.06
2023-01-12T21:46:22.866Z,100137.91
2023-01-12T21:48:51.746Z,100141.47
2023-01-12T21:51:22.213Z,100138.44
2023-01-12T21:53:51.685Z,100136.72
2023-01-12T21:56:20.828Z,100141.94
2023-01-12T21:58:49.742Z,100140.94
2023-01-12T22:01:19.459Z,100138.72
2023-01-12T22:03:48.374Z,100135.69
2023-01-12T22:06:17.522Z,100138.25
2023-01-12T22:08:47.854Z,100127.28
2023-01-12T22:11:18.376Z,100133.25
2023-01-12T22:13:47.254Z,100122.06
2023-01-12T22:16:17.948Z,100110.94
2023-01-12T22:18:50.199Z,100119.44
2023-01-12T22:21:21.897Z,100110.41
2023-01-12T22:23:52.065Z,100124.06
2023-01-12T22:26:21.809Z,100120.03
2023-01-12T22:28:50.676Z,100120.88
2023-01-12T22:31:22.958Z,100113.44
2023-01-12T22:33:58.660Z,100121.88
2023-01-12T22:36:27.842Z,100117.84
2023-01-12T22:38:58.077Z,100113.38
2023-01-12T22:41:27.738Z,100104.69
2023-01-12T22:43:56.887Z,100101.31
2023-01-12T22:46:28.338Z,100096.03
2023-01-12T22:48:59.365Z,100088.75
2023-01-12T22:51:31.357Z,100089.25
2023-01-12T22:54:01.587Z,100087.22
2023-01-12T22:56:30.863Z,100080.91
2023-01-12T22:58:59.671Z,100078.16
2023-01-12T23:01:28.965Z,100076.38
2023-01-12T23:03:59.174Z,100080.25
2023-01-12T23:06:29.068Z,100087.06
2023-01-12T23:08:57.914Z,100089.69
2023-01-12T23:11:28.429Z,100090.44
2023-01-12T23:13:57.242Z,100095.06
2023-01-12T23:16:28.635Z,100093.22
2023-01-12T23:18:57.601Z,100092.22
2023-01-12T23:21:29.105Z,100089.50
2023-01-12T23:24:01.377Z,100087.97
2023-01-12T23:26:33.989Z,100094.16
2023-01-12T23:29:03.590Z,100091.53
2023-01-12T23:31:35.093Z,100090.34
2023-01-12T23:34:04.079Z,100088.59
2023-01-12T23:36:33.335Z,100082.66
2023-01-12T23:39:05.695Z,100089.47
2023-01-12T23:41:38.558Z,100085.63
2023-01-12T23:44:10.779Z,100085.69
2023-01-12T23:46:43.178Z,100089.34
2023-01-12T23:49:12.750Z,100096.91
2023-01-12T23:51:41.633Z,100091.34
2023-01-12T23:54:18.452Z,100093.97
2023-01-12T23:56:53.429Z,100091.16
2023-01-12T23:59:22.576Z,100098.28
